Time;durP1;ratioP1;P1;durP2;ratioP2;P2;SDS_P1;SDS_P2;PMS_P1;PMS_P2;Temp;Humidity;BMP_temperature;BMP_pressure;BME280_temperature;BME280_humidity;BME280_pressure;Samples;Min_cycle;Max_cycle;Signal;HPM_P1;HPM_P2
2022/03/16 00:01:49;;;;;;;136.40;71.23;;;;;;;5.29;50.65;95836.91;5073077;28;20555;-84
2022/03/16 00:04:14;;;;;;;131.53;73.47;;;;;;;5.18;50.75;95816.31;5055122;28;20681;-84
2022/03/16 00:06:40;;;;;;;101.00;49.27;;;;;;;4.97;51.08;95784.50;5072588;28;20194;-84
2022/03/16 00:09:05;;;;;;;116.33;61.40;;;;;;;5.07;51.55;95819.97;5072920;28;20213;-84
2022/03/16 00:11:31;;;;;;;148.07;55.20;;;;;;;5.25;51.47;95839.03;5072662;28;20173;-84
2022/03/16 00:13:57;;;;;;;130.97;49.63;;;;;;;5.40;50.49;95847.09;5072587;28;20170;-85
2022/03/16 00:16:22;;;;;;;132.87;54.53;;;;;;;5.30;49.31;95841.16;5054195;28;20177;-85
2022/03/16 00:18:48;;;;;;;97.53;41.73;;;;;;;5.28;48.93;95827.44;5072044;28;20227;-86
2022/03/16 00:21:13;;;;;;;140.50;61.60;;;;;;;5.12;49.08;95790.78;5071801;28;20174;-85
2022/03/16 00:23:39;;;;;;;128.33;62.93;;;;;;;5.59;49.64;95870.38;5071788;28;20624;-86
2022/03/16 00:26:04;;;;;;;293.53;120.80;;;;;;;5.09;50.42;95801.56;5072116;28;20289;-85
2022/03/16 00:28:30;;;;;;;112.70;48.23;;;;;;;4.74;52.12;95774.59;5054425;28;20174;-86
2022/03/16 00:30:56;;;;;;;123.23;46.83;;;;;;;5.13;52.49;95831.59;5072444;28;20165;-86
2022/03/16 00:33:21;;;;;;;100.90;40.87;;;;;;;4.96;52.70;95809.78;5055598;28;21074;-85
2022/03/16 00:35:47;;;;;;;111.13;41.70;;;;;;;4.87;53.41;95777.59;5073105;28;20151;-85
2022/03/16 00:38:16;;;;;;;109.83;38.97;;;;;;;4.78;53.47;95751.63;5054713;28;20191;-85
2022/03/16 00:40:42;;;;;;;104.37;41.67;;;;;;;4.69;53.82;95729.88;5072662;28;20219;-86
2022/03/16 00:43:08;;;;;;;109.57;41.60;;;;;;;4.75;54.15;95744.13;5054208;28;20159;-85
2022/03/16 00:45:33;;;;;;;106.97;40.03;;;;;;;4.80;54.17;95749.69;5056254;28;20218;-84
2022/03/16 00:47:59;;;;;;;91.73;36.13;;;;;;;4.96;53.64;95769.81;5054724;28;20171;-85
2022/03/16 00:50:26;;;;;;;93.10;36.83;;;;;;;5.19;53.84;95791.84;5071800;28;20182;-85
2022/03/16 00:52:53;;;;;;;106.20;43.58;;;;;;;5.38;53.35;95802.03;5070966;28;20413;-85
2022/03/16 00:55:19;;;;;;;97.47;39.50;;;;;;;5.30;54.61;95800.22;5072645;28;20155;-86
2022/03/16 00:57:44;;;;;;;88.73;33.70;;;;;;;5.26;52.97;95779.81;5072109;28;20174;-86
2022/03/16 01:00:10;;;;;;;106.17;37.20;;;;;;;5.28;53.06;95773.44;5052462;28;20193;-87
2022/03/16 01:02:36;;;;;;;89.17;34.57;;;;;;;5.22;53.79;95768.84;5071046;28;20265;-87
2022/03/16 01:05:02;;;;;;;83.90;34.83;;;;;;;5.10;52.99;95743.19;5071241;28;20201;-87
2022/03/16 01:07:30;;;;;;;100.03;39.13;;;;;;;5.26;53.30;95775.41;5071705;28;20181;-86
2022/03/16 01:09:55;;;;;;;88.17;35.27;;;;;;;5.01;53.13;95736.28;5053428;28;20659;-84
2022/03/16 01:12:21;;;;;;;86.23;35.60;;;;;;;5.29;53.83;95793.34;5053125;28;20190;-85
2022/03/16 01:14:47;;;;;;;116.90;43.17;;;;;;;5.00;54.35;95753.72;5053096;28;20185;-85
2022/03/16 01:17:12;;;;;;;100.87;40.37;;;;;;;4.69;54.09;95711.63;5053168;28;20579;-84
2022/03/16 01:19:39;;;;;;;118.90;43.37;;;;;;;4.76;54.00;95723.06;5071614;28;20662;-85
2022/03/16 01:22:05;;;;;;;100.70;40.70;;;;;;;4.82;54.06;95722.47;5054639;28;20545;-85
2022/03/16 01:24:31;;;;;;;107.27;41.73;;;;;;;4.83;54.49;95718.09;5071836;28;20162;-85
2022/03/16 01:26:56;;;;;;;121.30;44.47;;;;;;;5.12;54.31;95759.47;5071654;28;20206;-85
2022/03/16 01:29:24;;;;;;;114.80;40.63;;;;;;;5.08;54.26;95751.16;5071960;28;20158;-86
2022/03/16 01:31:52;;;;;;;118.30;41.83;;;;;;;4.79;54.24;95714.13;5054351;28;20170;-85
2022/03/16 01:34:17;;;;;;;106.93;39.57;;;;;;;4.69;53.96;95693.38;5053725;28;20212;-85
2022/03/16 01:36:43;;;;;;;120.53;41.20;;;;;;;5.12;53.94;95759.47;5053867;28;20182;-86
2022/03/16 01:39:09;;;;;;;110.40;39.60;;;;;;;5.07;53.72;95764.34;5053615;28;20166;-85
2022/03/16 01:41:35;;;;;;;105.40;39.47;;;;;;;4.99;53.90;95746.06;5071563;28;20646;-84
2022/03/16 01:44:01;;;;;;;104.97;37.23;;;;;;;5.10;53.96;95754.41;5071484;28;20178;-85
2022/03/16 01:46:27;;;;;;;109.70;37.90;;;;;;;4.51;54.19;95651.72;5071676;28;20194;-84
2022/03/16 01:48:53;;;;;;;93.70;38.13;;;;;;;5.09;53.48;95738.94;5072767;28;20170;-84
2022/03/16 01:51:19;;;;;;;95.33;38.83;;;;;;;4.67;54.79;95690.09;5053503;28;20217;-85
2022/03/16 01:53:44;;;;;;;91.43;37.00;;;;;;;4.72;55.26;95694.88;5071630;28;20215;-85
2022/03/16 01:56:10;;;;;;;91.80;36.07;;;;;;;4.92;56.49;95709.34;5071495;28;20692;-85
2022/03/16 01:58:36;;;;;;;93.03;39.80;;;;;;;4.70;56.15;95673.31;5071941;28;20167;-85
2022/03/16 02:01:01;;;;;;;98.37;39.13;;;;;;;5.12;56.43;95734.22;5071545;28;20176;-84
2022/03/16 02:03:27;;;;;;;99.73;40.10;;;;;;;4.67;56.47;95655.41;5070601;28;20197;-85
2022/03/16 02:05:53;;;;;;;105.13;38.87;;;;;;;4.74;55.85;95659.03;5051223;28;20232;-85
2022/03/16 02:08:19;;;;;;;96.57;39.63;;;;;;;4.81;55.91;95683.50;5052738;28;20536;-85
2022/03/16 02:10:45;;;;;;;94.67;38.40;;;;;;;4.78;56.42;95679.41;5071673;28;20212;-85
2022/03/16 02:13:11;;;;;;;102.10;41.17;;;;;;;5.11;56.89;95718.69;5075026;28;20166;-85
2022/03/16 02:15:37;;;;;;;93.77;40.83;;;;;;;5.10;56.56;95720.50;5075095;28;20171;-85
2022/03/16 02:18:03;;;;;;;101.23;40.50;;;;;;;4.74;56.28;95651.19;5056553;28;20275;-85
2022/03/16 02:20:28;;;;;;;101.13;40.47;;;;;;;4.80;56.37;95668.81;5074026;28;20694;-86
2022/03/16 02:22:54;;;;;;;101.17;40.13;;;;;;;5.12;56.54;95715.94;5073024;28;20173;-85
2022/03/16 02:25:19;;;;;;;103.03;39.00;;;;;;;5.06;56.10;95687.88;5053691;28;20194;-85
2022/03/16 02:27:45;;;;;;;100.60;38.10;;;;;;;4.81;56.80;95647.81;5073458;28;20736;-85
2022/03/16 02:30:11;;;;;;;92.40;35.07;;;;;;;5.06;56.31;95706.13;5074033;28;20213;-85
2022/03/16 02:32:36;;;;;;;110.23;39.53;;;;;;;4.97;56.37;95680.16;5073828;28;20226;-85
2022/03/16 02:35:02;;;;;;;91.83;38.30;;;;;;;4.73;56.74;95655.59;5073887;28;20227;-85
2022/03/16 02:37:28;;;;;;;106.17;36.03;;;;;;;4.72;57.32;95647.94;5056494;28;20695;-85
2022/03/16 02:39:55;;;;;;;82.63;35.23;;;;;;;4.90;55.60;95686.00;5074515;28;20159;-86
2022/03/16 02:42:22;;;;;;;107.30;38.80;;;;;;;4.71;56.65;95651.50;5074375;28;20170;-86
2022/03/16 02:44:47;;;;;;;101.73;39.90;;;;;;;4.74;57.64;95651.19;5056402;28;20217;-84
2022/03/16 02:47:13;;;;;;;124.40;45.70;;;;;;;4.50;57.48;95613.56;5056343;28;20166;-85
2022/03/16 02:49:38;;;;;;;122.53;46.83;;;;;;;5.02;57.89;95707.41;5074321;28;20167;-87
2022/03/16 02:52:11;;;;;;;112.67;43.97;;;;;;;4.66;57.38;95625.91;5074299;28;20643;-87
2022/03/16 02:54:36;;;;;;;90.97;37.87;;;;;;;4.80;55.88;95633.13;5056528;28;20239;-87
2022/03/16 02:57:02;;;;;;;105.50;37.67;;;;;;;4.74;56.90;95618.13;5056524;28;20163;-86
2022/03/16 02:59:28;;;;;;;97.37;36.43;;;;;;;4.93;54.56;95646.53;5056102;28;20166;-85
2022/03/16 03:01:53;;;;;;;89.37;36.03;;;;;;;4.91;55.51;95632.88;5073904;28;20708;-85
2022/03/16 03:04:19;;;;;;;70.60;29.83;;;;;;;4.89;54.69;95628.78;5058232;28;20166;-85
2022/03/16 03:06:44;;;;;;;85.47;35.00;;;;;;;5.17;55.31;95668.50;5073916;28;20201;-85
2022/03/16 03:09:10;;;;;;;84.83;36.50;;;;;;;5.08;56.22;95641.56;5073998;28;20200;-85
2022/03/16 03:11:35;;;;;;;100.33;38.70;;;;;;;5.14;56.39;95653.97;5073701;28;20253;-85
2022/03/16 03:14:01;;;;;;;93.70;39.43;;;;;;;4.81;56.47;95608.69;5073399;28;20261;-85
2022/03/16 03:16:26;;;;;;;99.83;39.40;;;;;;;5.18;56.39;95665.75;5076074;28;20567;-85
2022/03/16 03:18:51;;;;;;;92.50;37.20;;;;;;;5.17;56.43;95658.91;5073164;28;20207;-85
2022/03/16 03:21:17;;;;;;;87.73;37.07;;;;;;;5.08;56.54;95645.97;5055933;28;20188;-85
2022/03/16 03:23:45;;;;;;;94.23;38.90;;;;;;;5.18;56.46;95662.31;5072974;28;20205;-85
2022/03/16 03:26:10;;;;;;;95.67;38.10;;;;;;;4.78;56.93;95601.16;5074297;28;20194;-85
2022/03/16 03:28:36;;;;;;;99.07;39.17;;;;;;;5.16;57.28;95662.47;5074639;28;20159;-85
2022/03/16 03:31:02;;;;;;;99.87;38.63;;;;;;;5.19;57.27;95661.34;5062912;28;20192;-86
2022/03/16 03:33:28;;;;;;;90.37;38.10;;;;;;;5.11;57.81;95653.47;5061626;28;20210;-85
2022/03/16 03:35:53;;;;;;;96.63;39.53;;;;;;;5.19;56.83;95661.34;5057955;28;20174;-86
2022/03/16 03:38:19;;;;;;;105.00;41.50;;;;;;;5.18;56.41;95649.28;5072283;28;20685;-86
2022/03/16 03:40:45;;;;;;;99.50;40.33;;;;;;;5.08;56.60;95638.16;5073016;28;20169;-86
2022/03/16 03:43:11;;;;;;;101.53;39.80;;;;;;;4.75;56.75;95577.22;5073094;28;20304;-86
2022/03/16 03:45:36;;;;;;;110.63;42.93;;;;;;;4.84;56.54;95597.94;5073309;28;20575;-86
2022/03/16 03:48:01;;;;;;;97.20;41.07;;;;;;;4.86;57.47;95597.78;5073121;28;20238;-86
2022/03/16 03:50:27;;;;;;;103.57;41.70;;;;;;;4.92;57.37;95611.03;5073251;28;20179;-86
2022/03/16 03:52:52;;;;;;;96.00;40.03;;;;;;;4.79;58.26;95588.94;5072980;28;20585;-86
2022/03/16 03:55:18;;;;;;;98.50;40.03;;;;;;;4.69;58.35;95583.03;5054345;28;20185;-86
2022/03/16 03:57:44;;;;;;;93.77;39.93;;;;;;;4.90;59.00;95628.63;5070444;28;20179;-85
2022/03/16 04:00:10;;;;;;;96.47;42.27;;;;;;;4.98;58.86;95621.78;5054056;28;20174;-86
2022/03/16 04:02:35;;;;;;;100.10;39.43;;;;;;;4.85;59.45;95596.94;5054299;28;20235;-86
2022/03/16 04:05:04;;;;;;;97.50;41.37;;;;;;;4.75;58.67;95580.63;5054947;28;20166;-86
2022/03/16 04:07:29;;;;;;;102.30;43.07;;;;;;;4.77;59.59;95581.28;5054963;28;20174;-86
2022/03/16 04:09:55;;;;;;;99.33;43.83;;;;;;;4.99;58.35;95616.44;5073093;28;20170;-86
2022/03/16 04:12:20;;;;;;;92.60;41.13;;;;;;;5.01;59.06;95621.50;5056125;28;20184;-86
2022/03/16 04:14:46;;;;;;;104.93;49.77;;;;;;;5.20;58.09;95642.09;5055499;28;20182;-85
2022/03/16 04:17:11;;;;;;;103.40;48.57;;;;;;;5.06;56.90;95619.22;5072596;28;20170;-85
2022/03/16 04:19:37;;;;;;;99.10;47.83;;;;;;;4.70;56.94;95561.22;5074754;28;20181;-85
2022/03/16 04:22:02;;;;;;;98.20;47.67;;;;;;;4.86;56.71;95590.78;5072607;28;20201;-85
2022/03/16 04:24:28;;;;;;;97.53;46.63;;;;;;;4.79;56.92;95568.91;5054822;28;20622;-86
2022/03/16 04:26:54;;;;;;;91.73;44.93;;;;;;;4.79;56.91;95571.50;5054541;28;20201;-85
2022/03/16 04:29:19;;;;;;;101.67;47.13;;;;;;;4.61;57.20;95551.72;5073387;28;20280;-85
2022/03/16 04:31:45;;;;;;;83.17;42.23;;;;;;;5.09;57.67;95617.13;5062297;28;20679;-85
2022/03/16 04:34:10;;;;;;;99.77;44.53;;;;;;;4.64;58.46;95543.59;5072833;28;20283;-85
2022/03/16 04:36:36;;;;;;;111.20;43.80;;;;;;;4.89;58.55;95581.81;5072382;28;20921;-86
2022/03/16 04:39:01;;;;;;;93.13;41.93;;;;;;;4.67;58.88;95546.69;5054529;28;20167;-86
2022/03/16 04:41:27;;;;;;;95.47;43.67;;;;;;;4.93;59.18;95586.53;5053127;28;20625;-86
2022/03/16 04:43:52;;;;;;;100.07;41.10;;;;;;;4.59;58.89;95527.59;5053520;28;20173;-86
2022/03/16 04:46:18;;;;;;;199.17;102.13;;;;;;;5.15;60.40;95607.84;5053678;28;20198;-86
2022/03/16 04:48:43;;;;;;;1999.90;999.90;;;;;;;4.55;60.79;95520.09;5053844;28;20235;-86
2022/03/16 04:51:09;;;;;;;1999.90;999.90;;;;;;;4.84;60.37;95566.63;5054309;28;20284;-86
2022/03/16 04:53:34;;;;;;;1999.90;999.90;;;;;;;4.96;60.39;95571.56;5072331;28;20174;-86
2022/03/16 04:56:00;;;;;;;1999.90;999.90;;;;;;;4.84;59.27;95553.59;5072094;28;20651;-86
2022/03/16 04:58:26;;;;;;;1999.90;999.90;;;;;;;4.82;58.70;95546.91;5073380;28;20555;-86
2022/03/16 05:00:51;;;;;;;1999.90;999.90;;;;;;;5.03;58.52;95562.13;5054059;28;20178;-86
2022/03/16 05:03:16;;;;;;;1999.90;999.90;;;;;;;5.22;58.58;95588.75;5054265;28;20628;-86
2022/03/16 05:05:42;;;;;;;1999.90;999.90;;;;;;;4.80;57.95;95515.78;5072852;28;20186;-86
2022/03/16 05:08:08;;;;;;;1999.90;999.90;;;;;;;4.81;57.21;95522.63;5053267;28;20625;-86
2022/03/16 05:10:33;;;;;;;1999.90;999.90;;;;;;;5.01;58.24;95553.66;5070996;28;20217;-86
2022/03/16 05:12:59;;;;;;;1999.90;999.90;;;;;;;4.69;59.93;95497.81;5051587;28;20265;-87
2022/03/16 05:15:24;;;;;;;1999.90;999.90;;;;;;;4.85;58.99;95520.50;5069820;28;20182;-87
2022/03/16 05:17:50;;;;;;;1999.90;999.90;;;;;;;5.23;58.82;95577.34;5052146;28;20185;-86
2022/03/16 05:20:16;;;;;;;1999.90;999.90;;;;;;;4.85;58.13;95510.06;5051867;28;20174;-86
2022/03/16 05:22:49;;;;;;;1999.90;999.90;;;;;;;5.31;58.19;95585.19;5051082;28;20170;-86
2022/03/16 05:25:19;;;;;;;1999.90;999.90;;;;;;;5.36;58.59;95574.28;5052658;28;20198;-86
2022/03/16 05:27:45;;;;;;;1999.90;999.90;;;;;;;5.39;57.09;95570.53;5070896;28;20166;-87
2022/03/16 05:30:12;;;;;;;1999.90;999.90;;;;;;;5.42;57.51;95565.81;5053646;28;20182;-87
2022/03/16 05:32:41;;;;;;;1999.90;999.90;;;;;;;5.38;57.94;95561.06;5073386;28;20221;-86
2022/03/16 05:35:08;;;;;;;1999.90;999.90;;;;;;;5.41;57.68;95551.13;5076155;28;20224;-87
2022/03/16 05:37:33;;;;;;;1999.90;999.90;;;;;;;5.12;57.79;95501.16;5051570;28;20174;-87
2022/03/16 05:39:59;;;;;;;1999.90;999.90;;;;;;;5.17;57.67;95494.50;5053458;28;20255;-87
2022/03/16 05:42:24;;;;;;;1999.90;999.90;;;;;;;5.32;57.56;95511.13;5071169;28;20177;-87
2022/03/16 05:44:54;;;;;;;1999.90;999.90;;;;;;;5.16;57.04;95471.16;5071586;28;20257;-86
2022/03/16 05:47:23;;;;;;;1999.90;999.90;;;;;;;5.31;58.09;95479.97;5079902;28;20631;-87
2022/03/16 05:49:53;;;;;;;1999.90;999.90;;;;;;;5.65;59.05;95525.00;5071327;28;20208;-84
2022/03/16 05:52:21;;;;;;;1999.90;999.90;;;;;;;5.62;57.26;95520.09;5074502;28;20190;-84
2022/03/16 05:54:55;;;;;;;1999.90;999.90;;;;;;;5.75;57.14;95532.69;5056864;28;20210;-84
2022/03/16 05:57:21;;;;;;;1999.90;999.90;;;;;;;5.54;57.60;95486.16;5068298;28;20182;-84
2022/03/16 05:59:46;;;;;;;1999.90;999.90;;;;;;;5.43;57.62;95464.81;5074539;28;20996;-84
2022/03/16 06:02:13;;;;;;;1999.90;999.90;;;;;;;5.97;57.38;95542.47;5074404;28;20713;-84
2022/03/16 06:04:40;;;;;;;1999.90;999.90;;;;;;;6.03;57.17;95538.41;5074376;28;20178;-84
2022/03/16 06:07:06;;;;;;;1999.90;999.90;;;;;;;5.97;57.09;95516.34;5074524;28;20240;-84
2022/03/16 06:09:32;;;;;;;1999.90;999.90;;;;;;;5.95;56.61;95518.31;5072897;28;20174;-84
2022/03/16 06:11:58;;;;;;;1999.90;999.90;;;;;;;6.18;57.04;95539.34;5075578;28;20223;-84
2022/03/16 06:14:24;;;;;;;1999.90;999.90;;;;;;;6.03;56.12;95525.34;5074863;28;20201;-84
2022/03/16 06:16:50;;;;;;;1999.90;999.90;;;;;;;6.19;56.46;95540.16;5075012;28;20291;-84
2022/03/16 06:19:15;;;;;;;1999.90;999.90;;;;;;;6.08;56.29;95515.19;5056834;28;20232;-84
2022/03/16 06:21:41;;;;;;;1999.90;999.90;;;;;;;6.13;56.19;95514.69;5075208;28;20234;-86
2022/03/16 06:24:09;;;;;;;1999.90;999.90;;;;;;;6.19;56.27;95525.28;5074671;28;20179;-84
2022/03/16 06:26:34;;;;;;;1999.90;999.90;;;;;;;5.79;56.19;95460.84;5056770;28;20198;-84
2022/03/16 06:29:00;;;;;;;1999.90;999.90;;;;;;;5.97;56.34;95479.75;5056691;28;20167;-84
2022/03/16 06:31:25;;;;;;;1999.90;999.90;;;;;;;5.79;55.93;95455.63;5056639;28;20245;-84
2022/03/16 06:33:51;;;;;;;1999.90;999.90;;;;;;;6.06;55.75;95498.84;5074415;28;20257;-83
2022/03/16 06:36:17;;;;;;;1999.90;999.90;;;;;;;6.29;55.64;95551.25;5073979;28;20162;-84
2022/03/16 06:38:42;;;;;;;1999.90;999.90;;;;;;;6.23;55.59;95534.41;5073888;28;20631;-87
2022/03/16 06:41:08;;;;;;;1999.90;999.90;;;;;;;6.00;55.78;95513.41;5073184;28;20200;-83
2022/03/16 06:43:34;;;;;;;1999.90;999.90;;;;;;;5.75;56.01;95484.84;5056050;28;20166;-87
2022/03/16 06:46:00;;;;;;;1999.90;999.90;;;;;;;6.17;56.38;95550.78;5055858;28;20198;-84
2022/03/16 06:48:26;;;;;;;1999.90;999.90;;;;;;;6.20;56.86;95537.38;5073356;28;20166;-84
2022/03/16 06:50:51;;;;;;;1999.90;999.90;;;;;;;5.95;56.44;95501.84;5055013;28;20178;-83
2022/03/16 06:53:17;;;;;;;1999.90;999.90;;;;;;;5.88;56.83;95503.47;5055447;28;20255;-83
2022/03/16 06:55:42;;;;;;;1999.90;999.90;;;;;;;5.92;56.55;95502.16;5055564;28;20174;-84
2022/03/16 06:58:08;;;;;;;1999.90;999.90;;;;;;;6.08;56.28;95515.19;5055027;28;20173;-84
2022/03/16 07:00:33;;;;;;;1999.90;999.90;;;;;;;6.33;56.27;95545.50;5074101;28;20198;-83
2022/03/16 07:03:05;;;;;;;1999.90;999.90;;;;;;;6.32;55.81;95543.88;5073874;28;20253;-84
2022/03/16 07:05:32;;;;;;;1999.90;999.90;;;;;;;6.14;56.31;95514.50;5073888;28;20758;-84
2022/03/16 07:07:59;;;;;;;1999.90;999.90;;;;;;;6.27;55.87;95534.91;5055894;28;20190;-84
2022/03/16 07:10:27;;;;;;;1999.90;999.90;;;;;;;5.98;55.45;95491.03;5073775;28;20163;-84
2022/03/16 07:12:53;;;;;;;1999.90;999.90;;;;;;;6.28;56.09;95531.31;5073450;28;20261;-84
2022/03/16 07:15:19;;;;;;;1999.90;999.90;;;;;;;6.11;56.23;95501.78;5054817;28;20151;-84
2022/03/16 07:17:44;;;;;;;1999.90;999.90;;;;;;;5.94;57.00;95463.63;5072679;28;20189;-84
2022/03/16 07:20:10;;;;;;;1999.90;999.90;;;;;;;6.11;57.70;95490.53;5072830;28;20171;-84
2022/03/16 07:22:36;;;;;;;1999.90;999.90;;;;;;;6.06;56.73;95481.38;5055418;28;20562;-84
2022/03/16 07:25:09;;;;;;;1999.90;999.90;;;;;;;6.49;56.46;95536.00;5055491;28;20173;-84
2022/03/16 07:27:41;;;;;;;1999.90;999.90;;;;;;;6.46;56.00;95524.06;5073519;28;20161;-84
2022/03/16 07:30:09;;;;;;;1999.90;999.90;;;;;;;6.44;56.24;95515.56;5055488;28;20248;-84
2022/03/16 07:32:39;;;;;;;1999.90;999.90;;;;;;;6.52;55.53;95535.66;5073378;28;20226;-85
2022/03/16 07:35:06;;;;;;;1999.90;999.90;;;;;;;6.27;55.79;95486.06;5055348;28;20166;-83
2022/03/16 07:37:31;;;;;;;1999.90;999.90;;;;;;;6.48;56.06;95527.34;5073565;28;20247;-83
2022/03/16 07:39:57;;;;;;;1999.90;999.90;;;;;;;6.08;56.37;95483.81;5073315;28;20217;-85
2022/03/16 07:42:23;;;;;;;1999.90;999.90;;;;;;;6.50;57.13;95521.91;5055321;28;20177;-85
2022/03/16 07:44:50;;;;;;;1999.90;999.90;;;;;;;6.15;57.09;95449.97;5074085;28;20201;-85
2022/03/16 07:47:16;;;;;;;1999.90;999.90;;;;;;;5.95;55.42;95392.91;5073140;28;20201;-85
2022/03/16 07:49:41;;;;;;;1999.90;999.90;;;;;;;6.68;55.99;95498.97;5072839;28;20212;-84
2022/03/16 07:52:07;;;;;;;1999.90;999.90;;;;;;;6.61;56.07;95466.63;5054064;28;20177;-84
2022/03/16 07:55:06;;;;;;;1999.90;999.90;;;;;;;7.01;54.46;95525.78;5072780;28;20171;-84
2022/03/16 07:57:32;;;;;;;1999.90;999.90;;;;;;;6.96;54.28;95497.53;5069253;28;20253;-83
2022/03/16 07:59:57;;;;;;;1999.90;999.90;;;;;;;6.64;53.88;95416.59;5054731;28;20274;-84
2022/03/16 08:02:23;;;;;;;1999.90;999.90;;;;;;;7.22;53.82;95504.22;5071893;28;20178;-83
2022/03/16 08:04:48;;;;;;;1999.90;999.90;;;;;;;7.21;53.04;95495.56;5054707;28;20170;-85
2022/03/16 08:07:14;;;;;;;1999.90;999.90;;;;;;;7.22;52.72;95475.44;5071817;28;20198;-83
2022/03/16 08:09:39;;;;;;;1999.90;999.90;;;;;;;7.30;53.42;95505.00;5071695;28;20641;-84
2022/03/16 08:12:05;;;;;;;1999.90;999.90;;;;;;;7.03;53.17;95464.41;5054033;28;20170;-84
2022/03/16 08:14:30;;;;;;;1999.90;999.90;;;;;;;6.83;52.73;95427.41;5053775;28;20175;-84
2022/03/16 08:16:56;;;;;;;1999.90;999.90;;;;;;;7.17;52.79;95466.31;5056311;28;20167;-86
2022/03/16 08:19:21;;;;;;;1999.90;999.90;;;;;;;7.13;53.19;95446.69;5053269;28;20171;-85
2022/03/16 08:21:48;;;;;;;1999.90;999.90;;;;;;;7.63;52.16;95500.31;5072152;28;20178;-86
2022/03/16 08:24:14;;;;;;;1999.90;999.90;;;;;;;7.64;51.53;95488.84;5071684;28;20171;-84
2022/03/16 08:26:40;;;;;;;1999.90;999.90;;;;;;;7.70;52.28;95489.94;5071254;28;20190;-82
2022/03/16 08:29:06;;;;;;;1999.90;999.90;;;;;;;7.74;51.51;95478.13;5069998;28;20183;-85
2022/03/16 08:31:31;;;;;;;1999.90;999.90;;;;;;;7.90;51.75;95481.41;5054754;28;20735;-84
2022/03/16 08:33:56;;;;;;;1999.90;999.90;;;;;;;7.64;51.44;95412.88;5077899;28;20258;-84
2022/03/16 08:36:22;;;;;;;1999.90;999.90;;;;;;;8.08;49.43;95462.69;5082319;28;20729;-84
2022/03/16 08:38:48;;;;;;;1999.90;999.90;;;;;;;8.24;49.56;95465.16;5062829;28;20261;-84
2022/03/16 08:41:13;;;;;;;1999.90;999.90;;;;;;;8.20;47.13;95457.84;5073135;28;20178;-84
2022/03/16 08:43:39;;;;;;;1999.90;999.90;;;;;;;8.06;45.85;95432.41;5054765;28;20718;-84
2022/03/16 08:46:05;;;;;;;1999.90;999.90;;;;;;;8.48;44.70;95492.13;5072478;28;20693;-84
2022/03/16 08:48:31;;;;;;;1999.90;999.90;;;;;;;8.21;45.50;95420.94;5072108;28;20178;-85
2022/03/16 08:50:56;;;;;;;1999.90;999.90;;;;;;;8.63;44.37;95480.63;5070076;28;20182;-84
2022/03/16 08:53:22;;;;;;;1999.90;999.90;;;;;;;8.75;44.51;95472.28;5072815;28;20587;-84
2022/03/16 08:55:48;;;;;;;1999.90;999.90;;;;;;;8.45;44.33;95406.75;5073237;28;20165;-85
2022/03/16 08:58:14;;;;;;;1999.90;999.90;;;;;;;9.01;43.74;95469.94;5073134;28;20643;-84
2022/03/16 09:00:41;;;;;;;1999.90;999.90;;;;;;;8.83;44.13;95409.97;5072309;28;20174;-87
2022/03/16 09:03:07;;;;;;;1999.90;999.90;;;;;;;9.13;43.24;95436.94;5072881;28;20269;-88
2022/03/16 09:05:33;;;;;;;1999.90;999.90;;;;;;;9.13;42.00;95426.44;5055390;28;20252;-86
2022/03/16 09:07:59;;;;;;;1999.90;999.90;;;;;;;9.01;41.77;95420.88;5053662;28;20174;-85
2022/03/16 09:10:24;;;;;;;1999.90;999.90;;;;;;;8.67;42.85;95363.78;5073706;28;20166;-86
2022/03/16 09:12:50;;;;;;;1999.90;999.90;;;;;;;9.01;43.08;95420.88;5054692;28;20181;-88
2022/03/16 09:15:15;;;;;;;1999.90;999.90;;;;;;;8.88;41.92;95409.44;5055711;28;20170;-86
2022/03/16 09:17:41;;;;;;;1999.90;999.90;;;;;;;8.42;43.84;95328.41;5073138;28;20599;-84
2022/03/16 09:20:07;;;;;;;1999.90;999.90;;;;;;;8.90;43.02;95410.06;5071972;28;20181;-86
2022/03/16 09:22:33;;;;;;;1999.90;999.90;;;;;;;9.40;42.75;95485.31;5075496;28;20170;-84
2022/03/16 09:24:59;;;;;;;1999.90;999.90;;;;;;;9.08;42.33;95423.59;5058004;28;20208;-85
2022/03/16 09:27:25;;;;;;;1999.90;999.90;;;;;;;9.50;42.10;95485.00;5075539;28;20178;-84
2022/03/16 09:29:53;;;;;;;1999.90;999.90;;;;;;;9.53;42.91;95485.41;5074807;28;20181;-85
2022/03/16 09:32:21;;;;;;;1999.90;999.90;;;;;;;9.65;43.92;95485.72;5056219;28;20222;-84
2022/03/16 09:34:48;;;;;;;1999.90;999.90;;;;;;;9.41;43.90;95431.75;5068359;28;20178;-86
2022/03/16 09:37:14;;;;;;;1999.90;999.90;;;;;;;9.92;42.47;95490.19;5071691;28;20174;-84
2022/03/16 09:39:39;;;;;;;1999.90;999.90;;;;;;;9.66;41.81;95429.53;5074009;28;20170;-88
2022/03/16 09:42:06;;;;;;;1999.90;999.90;;;;;;;9.82;41.99;95426.63;5056897;28;20322;-88
2022/03/16 09:44:32;;;;;;;1999.90;999.90;;;;;;;10.33;41.70;95495.56;5055191;28;20205;-87
2022/03/16 09:46:58;;;;;;;1999.90;999.90;;;;;;;10.13;41.75;95424.38;5053159;28;20233;-89
2022/03/16 09:49:26;;;;;;;1999.90;999.90;;;;;;;10.01;41.41;95427.75;5073863;28;20177;-88
2022/03/16 09:51:53;;;;;;;1999.90;999.90;;;;;;;10.09;41.78;95436.31;5056384;28;20179;-88
2022/03/16 09:54:19;;;;;;;1999.90;999.90;;;;;;;10.28;41.38;95465.59;5071938;28;20622;-89
2022/03/16 09:56:46;;;;;;;1999.90;999.90;;;;;;;10.25;41.21;95461.53;5075484;28;20239;-87
2022/03/16 09:59:11;;;;;;;1999.90;999.90;;;;;;;10.15;41.74;95450.50;5057471;28;20329;-85
2022/03/16 10:01:37;;;;;;;1999.90;999.90;;;;;;;10.29;41.42;95475.13;5072713;28;20214;-85
2022/03/16 10:04:06;;;;;;;1999.90;999.90;;;;;;;10.07;41.25;95435.69;5055681;28;20212;-86
2022/03/16 10:06:35;;;;;;;1999.90;999.90;;;;;;;10.15;41.72;95453.13;5052796;28;20199;-86
2022/03/16 10:15:13;;;;;;;1999.90;999.90;;;;;;;10.06;41.18;95455.09;5070142;28;20197;-87
2022/03/16 10:17:46;;;;;;;1999.90;999.90;;;;;;;9.78;41.36;95435.88;5065561;28;20179;-84
2022/03/16 10:20:26;;;;;;;1999.90;999.90;;;;;;;9.81;41.64;95464.41;5072510;28;20879;-88
2022/03/16 10:22:57;;;;;;;1999.90;999.90;;;;;;;9.53;42.18;95424.16;5052318;28;20255;-85
2022/03/16 10:25:22;;;;;;;1999.90;999.90;;;;;;;9.69;41.01;95444.91;5049878;28;20286;-86
2022/03/16 10:27:48;;;;;;;1999.90;999.90;;;;;;;9.55;41.89;95430.03;5047466;28;20269;-86
2022/03/16 10:30:14;;;;;;;1999.90;999.90;;;;;;;9.45;41.50;95418.03;5065378;28;20603;-86
2022/03/16 10:32:52;;;;;;;1999.90;999.90;;;;;;;9.83;41.81;95459.78;5062699;28;20218;-83
2022/03/16 10:35:17;;;;;;;1999.90;999.90;;;;;;;9.40;41.43;95380.22;5074319;28;20178;-85
2022/03/16 10:37:43;;;;;;;1999.90;999.90;;;;;;;9.98;41.43;95457.88;5073597;28;20174;-84
2022/03/16 10:40:17;;;;;;;1999.90;999.90;;;;;;;9.93;41.68;95444.50;5073745;28;20171;-83
2022/03/16 10:48:19;;;;;;;624.87;429.63;;;;;;;9.45;43.59;95456.63;5074051;28;20165;-86
2022/03/16 10:50:47;;;;;;;973.37;714.97;;;;;;;9.16;43.98;95407.69;5068837;28;20171;-86
2022/03/16 10:53:16;;;;;;;1454.00;731.50;;;;;;;9.40;42.22;95451.97;5069692;28;20256;-84
2022/03/16 10:55:43;;;;;;;595.63;445.10;;;;;;;9.57;42.76;95447.25;5069428;28;21964;-85
2022/03/16 10:58:11;;;;;;;1177.93;767.23;;;;;;;9.35;43.22;95370.25;5072995;28;20185;-84
2022/03/16 11:00:39;;;;;;;1999.90;999.90;;;;;;;9.95;41.86;95418.78;5054557;28;20173;-85
2022/03/16 11:03:06;;;;;;;1999.90;999.90;;;;;;;9.59;41.32;95355.91;5072142;28;20663;-85
2022/03/16 11:05:36;;;;;;;1372.10;688.33;;;;;;;9.72;41.98;95381.44;5071204;28;20186;-83
2022/03/16 11:08:08;;;;;;;1999.90;999.90;;;;;;;9.75;41.91;95386.31;5073509;28;20565;-84
2022/03/16 11:10:36;;;;;;;1447.70;731.97;;;;;;;9.90;42.38;95418.56;5072009;28;20212;-88
2022/03/16 11:15:50;;;;;;;1999.90;999.90;;;;;;;9.89;41.25;95401.16;5074840;28;20185;-88
2022/03/16 11:18:19;;;;;;;1999.90;999.90;;;;;;;9.84;40.80;95364.13;5071140;28;20186;-88
2022/03/16 11:20:50;;;;;;;1999.90;999.90;;;;;;;9.62;40.52;95312.63;5062228;28;20197;-87